Time;durP1;ratioP1;P1;durP2;ratioP2;P2;SDS_P1;SDS_P2;PMS_P1;PMS_P2;Temp;Humidity;BMP_temperature;BMP_pressure;BME280_temperature;BME280_humidity;BME280_pressure;Samples;Min_cycle;Max_cycle;Signal;HPM_P1;HPM_P2
2022/05/31 00:00:11;;;;;;;;;;;25.40;56.60;;;;;;688463;28;795;-82
2022/05/31 00:00:32;;;;;;;;;;;25.40;55.60;;;;;;688554;28;804;-81
2022/05/31 00:00:53;;;;;;;;;;;25.50;55.00;;;;;;688639;28;808;-81
2022/05/31 00:01:13;;;;;;;;;;;25.40;55.30;;;;;;688493;28;945;-82
2022/05/31 00:01:35;;;;;;;;;;;25.40;54.90;;;;;;688679;28;942;-82
2022/05/31 00:01:56;;;;;;;;;;;25.40;55.50;;;;;;688814;28;787;-83
2022/05/31 00:02:20;;;;;;;;;;;25.50;55.00;;;;;;688679;28;870;-82
2022/05/31 00:02:41;;;;;;;;;;;25.40;56.00;;;;;;688671;28;966;-82
2022/05/31 00:03:03;;;;;;;;;;;25.40;54.60;;;;;;688366;28;1242;-82
2022/05/31 00:03:23;;;;;;;;;;;25.40;55.30;;;;;;688584;28;930;-81
2022/05/31 00:03:44;;;;;;;;;;;25.40;55.20;;;;;;688546;28;906;-82
2022/05/31 00:04:04;;;;;;;;;;;25.40;55.60;;;;;;688555;28;819;-81
2022/05/31 00:04:25;;;;;;;;;;;25.40;55.90;;;;;;688609;28;818;-83
2022/05/31 00:04:46;;;;;;;;;;;25.40;58.40;;;;;;688395;28;748;-81
2022/05/31 00:05:07;;;;;;;;;;;25.40;59.60;;;;;;688669;28;926;-82
2022/05/31 00:05:28;;;;;;;;;;;25.40;59.90;;;;;;688667;28;1315;-82
2022/05/31 00:05:48;;;;;;;;;;;25.40;58.70;;;;;;688807;28;894;-81
2022/05/31 00:06:09;;;;;;;;;;;25.40;60.70;;;;;;688685;28;819;-81
2022/05/31 00:06:29;;;;;;;;;;;25.40;60.60;;;;;;688620;28;879;-81
2022/05/31 00:06:50;;;;;;;;;;;25.40;63.30;;;;;;688443;28;1220;-81
2022/05/31 00:07:11;;;;;;;;;;;25.40;63.70;;;;;;688386;28;969;-82
2022/05/31 00:07:31;;;;;;;;;;;25.40;62.80;;;;;;688456;28;869;-81
2022/05/31 00:07:52;;;;;;;;;;;25.40;60.00;;;;;;688597;28;929;-81
2022/05/31 00:08:13;;;;;;;;;;;25.40;58.90;;;;;;688461;28;874;-82
2022/05/31 00:08:33;;;;;;;;;;;25.40;58.80;;;;;;688450;28;811;-81
2022/05/31 00:08:54;;;;;;;;;;;25.40;58.30;;;;;;688799;28;788;-81
2022/05/31 00:09:14;;;;;;;;;;;25.40;58.40;;;;;;688327;28;1734;-82
2022/05/31 00:09:35;;;;;;;;;;;25.40;58.70;;;;;;688521;28;787;-81
2022/05/31 00:09:56;;;;;;;;;;;25.40;58.70;;;;;;688568;28;799;-81
2022/05/31 00:10:16;;;;;;;;;;;25.40;58.20;;;;;;688437;28;887;-81
2022/05/31 00:10:37;;;;;;;;;;;25.40;57.70;;;;;;688478;28;1020;-81
2022/05/31 00:10:58;;;;;;;;;;;25.40;57.90;;;;;;688200;28;1462;-82
2022/05/31 00:11:19;;;;;;;;;;;25.40;57.90;;;;;;688625;28;1054;-80
2022/05/31 00:11:41;;;;;;;;;;;25.40;58.10;;;;;;688328;28;879;-81
2022/05/31 00:12:02;;;;;;;;;;;25.40;58.10;;;;;;688498;28;800;-82
2022/05/31 00:12:23;;;;;;;;;;;25.40;57.80;;;;;;688467;28;971;-82
2022/05/31 00:12:44;;;;;;;;;;;25.40;57.80;;;;;;688318;28;1906;-82
2022/05/31 00:13:04;;;;;;;;;;;25.40;59.10;;;;;;688442;28;855;-80
2022/05/31 00:13:26;;;;;;;;;;;25.40;58.60;;;;;;687849;28;854;-86
2022/05/31 00:13:46;;;;;;;;;;;25.40;58.10;;;;;;685781;28;843;-82
2022/05/31 00:14:08;;;;;;;;;;;25.40;57.90;;;;;;685841;28;791;-81
2022/05/31 00:14:28;;;;;;;;;;;25.40;57.00;;;;;;685808;28;799;-81
2022/05/31 00:14:49;;;;;;;;;;;25.30;57.30;;;;;;686208;28;867;-82
2022/05/31 00:15:10;;;;;;;;;;;25.40;57.20;;;;;;688630;28;879;-82
2022/05/31 00:15:32;;;;;;;;;;;25.30;57.40;;;;;;688570;28;961;-81
2022/05/31 00:15:52;;;;;;;;;;;25.30;57.70;;;;;;688834;28;874;-83
2022/05/31 00:16:13;;;;;;;;;;;25.30;57.10;;;;;;688693;28;882;-82
2022/05/31 00:16:34;;;;;;;;;;;25.30;58.20;;;;;;688611;28;815;-81
2022/05/31 00:16:54;;;;;;;;;;;25.30;56.80;;;;;;688705;28;942;-81
2022/05/31 00:17:15;;;;;;;;;;;25.30;56.90;;;;;;688561;28;866;-81
2022/05/31 00:17:36;;;;;;;;;;;25.30;57.30;;;;;;688313;28;787;-82
2022/05/31 00:17:57;;;;;;;;;;;25.30;56.80;;;;;;688508;28;1016;-81
2022/05/31 00:18:17;;;;;;;;;;;25.30;56.60;;;;;;688469;28;795;-81
2022/05/31 00:18:38;;;;;;;;;;;25.30;56.00;;;;;;688437;28;894;-81
2022/05/31 00:18:58;;;;;;;;;;;25.30;55.90;;;;;;688421;28;882;-82
2022/05/31 00:19:19;;;;;;;;;;;25.30;56.30;;;;;;688536;28;776;-81
2022/05/31 00:19:40;;;;;;;;;;;25.30;56.70;;;;;;688620;28;941;-81
2022/05/31 00:20:00;;;;;;;;;;;25.30;56.40;;;;;;688701;28;799;-82
2022/05/31 00:20:21;;;;;;;;;;;25.30;56.70;;;;;;688754;28;807;-82
2022/05/31 00:20:42;;;;;;;;;;;25.30;57.30;;;;;;688623;28;819;-81
2022/05/31 00:21:03;;;;;;;;;;;25.30;57.20;;;;;;688332;28;1251;-82
2022/05/31 00:21:28;;;;;;;;;;;25.30;56.60;;;;;;688476;28;803;-81
2022/05/31 00:22:05;;;;;;;;;;;25.30;56.50;;;;;;688554;28;878;-82
2022/05/31 00:22:27;;;;;;;;;;;25.30;56.60;;;;;;688506;28;1191;-82
2022/05/31 00:22:47;;;;;;;;;;;25.30;56.40;;;;;;687976;28;910;-80
2022/05/31 00:23:08;;;;;;;;;;;25.30;56.60;;;;;;685729;28;867;-81
2022/05/31 00:23:28;;;;;;;;;;;25.30;56.20;;;;;;685730;28;799;-81
2022/05/31 00:23:49;;;;;;;;;;;25.30;56.00;;;;;;685908;28;867;-82
2022/05/31 00:24:12;;;;;;;;;;;25.30;56.40;;;;;;686064;28;934;-81
2022/05/31 00:24:33;;;;;;;;;;;25.30;56.60;;;;;;688609;28;788;-82
2022/05/31 00:24:54;;;;;;;;;;;25.30;56.50;;;;;;688752;28;818;-82
2022/05/31 00:25:15;;;;;;;;;;;25.30;56.50;;;;;;688605;28;816;-82
2022/05/31 00:25:35;;;;;;;;;;;25.30;56.00;;;;;;688573;28;799;-81
2022/05/31 00:25:56;;;;;;;;;;;25.30;56.20;;;;;;688707;28;922;-81
2022/05/31 00:26:16;;;;;;;;;;;25.30;55.70;;;;;;688673;28;818;-81
2022/05/31 00:26:38;;;;;;;;;;;25.30;55.70;;;;;;688609;28;922;-81
2022/05/31 00:26:59;;;;;;;;;;;25.30;55.70;;;;;;688577;28;823;-82
2022/05/31 00:27:21;;;;;;;;;;;25.30;55.80;;;;;;688660;28;823;-81
2022/05/31 00:27:41;;;;;;;;;;;25.30;56.30;;;;;;688615;28;838;-81
2022/05/31 00:28:03;;;;;;;;;;;25.30;56.60;;;;;;688648;28;831;-81
2022/05/31 00:28:24;;;;;;;;;;;25.30;56.50;;;;;;688681;28;945;-82
2022/05/31 00:28:44;;;;;;;;;;;25.30;55.80;;;;;;688547;28;854;-82
2022/05/31 00:29:06;;;;;;;;;;;25.30;55.80;;;;;;685843;28;843;-81
2022/05/31 00:29:26;;;;;;;;;;;25.20;55.70;;;;;;685775;28;792;-82
2022/05/31 00:29:48;;;;;;;;;;;25.20;55.70;;;;;;682818;29;1328;-83
2022/05/31 00:30:09;;;;;;;;;;;25.30;55.60;;;;;;683144;29;950;-81
2022/05/31 00:30:30;;;;;;;;;;;25.30;55.40;;;;;;683247;29;815;-82
2022/05/31 00:30:51;;;;;;;;;;;25.30;55.40;;;;;;683856;28;890;-82
2022/05/31 00:31:11;;;;;;;;;;;25.20;57.20;;;;;;685633;28;1215;-81
2022/05/31 00:31:32;;;;;;;;;;;25.20;56.20;;;;;;686115;28;905;-82
2022/05/31 00:31:53;;;;;;;;;;;25.20;55.70;;;;;;688643;28;799;-83
2022/05/31 00:32:16;;;;;;;;;;;25.20;55.60;;;;;;690938;28;940;-81
2022/05/31 00:32:39;;;;;;;;;;;25.20;55.40;;;;;;691138;28;815;-82
2022/05/31 00:33:00;;;;;;;;;;;25.20;55.30;;;;;;690101;28;1967;-82
2022/05/31 00:33:21;;;;;;;;;;;25.30;55.30;;;;;;688517;28;779;-81
2022/05/31 00:33:41;;;;;;;;;;;25.20;55.20;;;;;;688337;28;823;-83
2022/05/31 00:34:02;;;;;;;;;;;25.20;55.20;;;;;;688511;28;1012;-81
2022/05/31 00:34:23;;;;;;;;;;;25.20;55.20;;;;;;688717;28;821;-83
2022/05/31 00:34:46;;;;;;;;;;;25.20;55.30;;;;;;688597;28;905;-83
2022/05/31 00:35:09;;;;;;;;;;;25.20;55.70;;;;;;688611;28;901;-81
2022/05/31 00:35:32;;;;;;;;;;;25.20;55.50;;;;;;688655;28;938;-82
2022/05/31 00:35:53;;;;;;;;;;;25.20;55.30;;;;;;688660;28;849;-85
2022/05/31 00:36:14;;;;;;;;;;;25.20;55.30;;;;;;688407;28;1192;-82
2022/05/31 00:36:35;;;;;;;;;;;25.20;55.20;;;;;;688424;28;811;-84
2022/05/31 00:36:57;;;;;;;;;;;25.20;55.10;;;;;;688494;28;893;-82
2022/05/31 00:37:17;;;;;;;;;;;25.20;55.20;;;;;;688351;28;1083;-82
2022/05/31 00:37:38;;;;;;;;;;;25.20;55.30;;;;;;688415;28;786;-82
2022/05/31 00:37:59;;;;;;;;;;;25.20;55.30;;;;;;687824;28;1476;-84
2022/05/31 00:38:21;;;;;;;;;;;25.20;55.30;;;;;;685874;28;811;-81
2022/05/31 00:38:42;;;;;;;;;;;25.20;55.10;;;;;;685755;28;819;-81
2022/05/31 00:39:03;;;;;;;;;;;25.20;55.10;;;;;;685777;28;973;-84
2022/05/31 00:39:23;;;;;;;;;;;25.20;55.30;;;;;;685856;28;918;-83
2022/05/31 00:39:44;;;;;;;;;;;25.20;55.30;;;;;;685679;28;1375;-83
2022/05/31 00:40:05;;;;;;;;;;;25.20;55.30;;;;;;685745;28;822;-83
2022/05/31 00:40:27;;;;;;;;;;;25.10;55.40;;;;;;685923;28;791;-83
2022/05/31 00:40:48;;;;;;;;;;;25.10;55.20;;;;;;685658;28;1393;-83
2022/05/31 00:41:23;;;;;;;;;;;25.10;55.50;;;;;;685707;28;823;-81
2022/05/31 00:41:55;;;;;;;;;;;25.20;55.60;;;;;;688247;28;923;-82
2022/05/31 00:42:17;;;;;;;;;;;25.20;55.40;;;;;;688494;28;909;-81
2022/05/31 00:42:53;;;;;;;;;;;25.20;55.10;;;;;;688625;28;980;-83
2022/05/31 00:43:20;;;;;;;;;;;25.20;55.30;;;;;;688650;28;877;-81
2022/05/31 00:43:40;;;;;;;;;;;25.10;55.00;;;;;;688622;28;490;-81
2022/05/31 00:44:03;;;;;;;;;;;25.10;55.00;;;;;;688571;28;834;-81
2022/05/31 00:44:27;;;;;;;;;;;25.10;55.00;;;;;;688656;28;846;-83
2022/05/31 00:44:48;;;;;;;;;;;25.10;56.00;;;;;;688568;28;886;-83
2022/05/31 00:45:08;;;;;;;;;;;25.10;54.80;;;;;;688692;28;937;-83
2022/05/31 00:45:58;;;;;;;;;;;25.10;54.80;;;;;;688702;28;814;-81
2022/05/31 00:46:21;;;;;;;;;;;25.10;55.00;;;;;;683109;29;811;-84
2022/05/31 00:46:53;;;;;;;;;;;25.10;55.10;;;;;;683581;29;1018;-81
2022/05/31 00:47:33;;;;;;;;;;;25.10;55.40;;;;;;683923;29;890;-83
2022/05/31 00:47:54;;;;;;;;;;;25.10;55.50;;;;;;684106;29;998;-82
2022/05/31 00:48:16;;;;;;;;;;;25.10;55.60;;;;;;682925;29;1183;-83
2022/05/31 00:48:40;;;;;;;;;;;25.20;56.40;;;;;;682790;29;1082;-84
2022/05/31 00:49:03;;;;;;;;;;;25.10;56.10;;;;;;682970;29;866;-83
2022/05/31 00:49:26;;;;;;;;;;;25.20;56.40;;;;;;683131;29;934;-84
2022/05/31 00:49:47;;;;;;;;;;;25.20;56.40;;;;;;682958;29;903;-84
2022/05/31 00:50:13;;;;;;;;;;;25.20;56.60;;;;;;682958;29;808;-83
2022/05/31 00:50:36;;;;;;;;;;;25.20;56.90;;;;;;683012;29;819;-84
2022/05/31 00:50:59;;;;;;;;;;;25.20;56.70;;;;;;682895;29;1443;-83
2022/05/31 00:51:20;;;;;;;;;;;25.20;56.50;;;;;;683098;29;895;-85
2022/05/31 00:51:46;;;;;;;;;;;25.20;56.70;;;;;;682990;29;803;-84
2022/05/31 00:52:10;;;;;;;;;;;25.20;56.30;;;;;;682813;29;914;-82
2022/05/31 00:52:33;;;;;;;;;;;25.20;56.80;;;;;;682837;29;841;-83
2022/05/31 00:52:57;;;;;;;;;;;25.20;56.30;;;;;;683026;29;1950;-84
2022/05/31 00:53:26;;;;;;;;;;;25.20;56.10;;;;;;683043;29;792;-83
2022/05/31 00:53:48;;;;;;;;;;;25.20;56.00;;;;;;682978;29;910;-84
2022/05/31 00:54:12;;;;;;;;;;;25.20;56.20;;;;;;682911;29;946;-83
2022/05/31 00:54:34;;;;;;;;;;;25.20;56.10;;;;;;683036;29;1042;-84
2022/05/31 00:55:10;;;;;;;;;;;25.20;55.80;;;;;;683077;29;907;-83
2022/05/31 00:55:45;;;;;;;;;;;25.20;56.00;;;;;;683040;29;835;-82
2022/05/31 00:56:26;;;;;;;;;;;25.20;56.50;;;;;;682942;29;858;-82
2022/05/31 00:56:47;;;;;;;;;;;25.30;56.60;;;;;;683043;29;867;-83
2022/05/31 00:57:08;;;;;;;;;;;25.20;57.00;;;;;;682985;29;859;-84
2022/05/31 00:57:29;;;;;;;;;;;25.20;56.70;;;;;;682944;29;969;-85
2022/05/31 00:57:56;;;;;;;;;;;25.30;56.90;;;;;;683035;29;986;-84
2022/05/31 00:58:34;;;;;;;;;;;25.20;57.00;;;;;;682890;29;930;-83
2022/05/31 00:58:54;;;;;;;;;;;25.30;57.20;;;;;;682882;28;839;-85
2022/05/31 00:59:20;;;;;;;;;;;25.30;56.60;;;;;;682628;29;803;-85
2022/05/31 00:59:43;;;;;;;;;;;25.30;56.50;;;;;;682951;29;826;-86
2022/05/31 01:00:09;;;;;;;;;;;25.30;56.30;;;;;;682951;29;780;-83
2022/05/31 01:00:29;;;;;;;;;;;25.30;55.80;;;;;;682956;29;860;-85
2022/05/31 01:00:50;;;;;;;;;;;25.30;56.00;;;;;;682923;29;1616;-85
2022/05/31 01:01:13;;;;;;;;;;;25.30;55.80;;;;;;683055;29;883;-83
2022/05/31 01:01:36;;;;;;;;;;;25.30;55.80;;;;;;685472;28;1463;-85
2022/05/31 01:01:56;;;;;;;;;;;25.30;55.70;;;;;;685744;28;796;-85
2022/05/31 01:02:17;;;;;;;;;;;25.30;55.60;;;;;;685547;28;803;-85
2022/05/31 01:02:38;;;;;;;;;;;25.30;56.50;;;;;;684778;28;874;-85
2022/05/31 01:02:59;;;;;;;;;;;25.30;56.30;;;;;;680092;29;1279;-85
2022/05/31 01:03:21;;;;;;;;;;;25.30;55.70;;;;;;680318;29;867;-83
2022/05/31 01:03:43;;;;;;;;;;;25.30;56.00;;;;;;677608;29;1235;-84
2022/05/31 01:04:04;;;;;;;;;;;25.30;56.00;;;;;;677675;29;971;-85
2022/05/31 01:04:32;;;;;;;;;;;25.30;56.10;;;;;;677788;29;979;-85
2022/05/31 01:04:55;;;;;;;;;;;25.30;56.00;;;;;;679465;29;1417;-84
2022/05/31 01:05:17;;;;;;;;;;;25.30;55.90;;;;;;680266;29;827;-85
2022/05/31 01:05:37;;;;;;;;;;;25.30;55.60;;;;;;682181;29;827;-85
2022/05/31 01:05:58;;;;;;;;;;;25.30;56.00;;;;;;682917;29;1446;-84
2022/05/31 01:06:19;;;;;;;;;;;25.30;55.30;;;;;;683001;29;835;-85
2022/05/31 01:06:40;;;;;;;;;;;25.30;55.80;;;;;;682992;29;910;-86
2022/05/31 01:07:02;;;;;;;;;;;25.30;55.50;;;;;;682984;29;914;-85
2022/05/31 01:07:23;;;;;;;;;;;25.30;55.70;;;;;;682966;29;858;-85
2022/05/31 01:07:43;;;;;;;;;;;25.30;56.10;;;;;;682943;29;898;-84
2022/05/31 01:08:05;;;;;;;;;;;25.30;56.20;;;;;;683010;29;835;-84
2022/05/31 01:08:25;;;;;;;;;;;25.30;55.60;;;;;;683026;29;921;-85
2022/05/31 01:08:46;;;;;;;;;;;25.30;55.80;;;;;;682860;29;1414;-85
2022/05/31 01:09:07;;;;;;;;;;;25.30;56.30;;;;;;683035;29;882;-85
2022/05/31 01:09:27;;;;;;;;;;;25.30;56.20;;;;;;682928;29;827;-85
2022/05/31 01:09:49;;;;;;;;;;;25.30;56.50;;;;;;683109;29;946;-85
2022/05/31 01:10:11;;;;;;;;;;;25.30;55.80;;;;;;682943;29;831;-84
2022/05/31 01:10:31;;;;;;;;;;;25.30;56.20;;;;;;682925;29;903;-85
2022/05/31 01:10:52;;;;;;;;;;;25.30;55.30;;;;;;682922;29;1332;-83
2022/05/31 01:11:14;;;;;;;;;;;25.30;55.30;;;;;;682871;29;831;-85
2022/05/31 01:11:38;;;;;;;;;;;25.30;55.60;;;;;;682744;29;1072;-85
2022/05/31 01:11:59;;;;;;;;;;;25.30;55.20;;;;;;682913;29;847;-84
2022/05/31 01:12:21;;;;;;;;;;;25.30;55.20;;;;;;683016;29;834;-85
2022/05/31 01:12:43;;;;;;;;;;;25.30;55.10;;;;;;680187;29;1279;-85
2022/05/31 01:13:03;;;;;;;;;;;25.30;55.10;;;;;;680281;29;1972;-85
2022/05/31 01:13:24;;;;;;;;;;;25.30;55.20;;;;;;680341;29;978;-85
2022/05/31 01:13:44;;;;;;;;;;;25.30;54.70;;;;;;680263;29;796;-85
2022/05/31 01:14:05;;;;;;;;;;;25.20;55.10;;;;;;680413;29;777;-85
2022/05/31 01:14:26;;;;;;;;;;;25.30;54.70;;;;;;680758;29;1389;-84
2022/05/31 01:14:47;;;;;;;;;;;25.30;54.70;;;;;;682908;29;891;-84
2022/05/31 01:15:09;;;;;;;;;;;25.30;54.70;;;;;;682950;29;839;-84
2022/05/31 01:15:29;;;;;;;;;;;25.30;54.80;;;;;;682849;29;887;-84
2022/05/31 01:15:50;;;;;;;;;;;25.30;54.20;;;;;;683147;29;910;-84
2022/05/31 01:16:13;;;;;;;;;;;25.30;54.30;;;;;;682880;29;887;-85
2022/05/31 01:16:33;;;;;;;;;;;25.20;53.60;;;;;;680171;29;1100;-85
2022/05/31 01:16:56;;;;;;;;;;;25.20;54.10;;;;;;680385;29;847;-83
2022/05/31 01:17:18;;;;;;;;;;;25.20;54.70;;;;;;680166;29;1148;-84
2022/05/31 01:17:40;;;;;;;;;;;25.20;54.00;;;;;;680092;29;1385;-85
2022/05/31 01:18:00;;;;;;;;;;;25.20;53.50;;;;;;680309;29;962;-85
2022/05/31 01:18:21;;;;;;;;;;;25.20;53.30;;;;;;681153;29;804;-84
2022/05/31 01:18:41;;;;;;;;;;;25.20;53.80;;;;;;682922;29;875;-85
2022/05/31 01:19:02;;;;;;;;;;;25.20;53.90;;;;;;682930;29;894;-85
2022/05/31 01:20:03;;;;;;;;;;;25.20;53.30;;;;;;680375;29;718;-84
2022/05/31 01:20:24;;;;;;;;;;;25.20;53.20;;;;;;680320;29;903;-85
2022/05/31 01:20:44;;;;;;;;;;;25.20;53.20;;;;;;680291;29;886;-85
2022/05/31 01:21:05;;;;;;;;;;;25.20;53.20;;;;;;680370;29;867;-85
2022/05/31 01:21:26;;;;;;;;;;;25.20;53.20;;;;;;682993;29;965;-85
2022/05/31 01:21:47;;;;;;;;;;;25.20;53.20;;;;;;682913;29;819;-86
2022/05/31 01:22:07;;;;;;;;;;;25.20;53.30;;;;;;682915;29;811;-84
2022/05/31 01:22:39;;;;;;;;;;;25.20;53.20;;;;;;682928;29;830;-86
2022/05/31 01:23:03;;;;;;;;;;;25.20;53.50;;;;;;682884;28;1830;-86
2022/05/31 01:23:25;;;;;;;;;;;25.20;53.70;;;;;;683026;29;783;-85
2022/05/31 01:24:15;;;;;;;;;;;25.20;53.60;;;;;;685498;28;1153;-86
2022/05/31 01:24:45;;;;;;;;;;;25.20;53.40;;;;;;682885;29;839;-86
2022/05/31 01:25:21;;;;;;;;;;;25.20;53.20;;;;;;682925;29;1147;-85
2022/05/31 01:25:59;;;;;;;;;;;25.20;53.20;;;;;;680150;29;899;-85
2022/05/31 01:26:38;;;;;;;;;;;25.20;53.20;;;;;;680354;29;1064;-84
2022/05/31 01:27:04;;;;;;;;;;;25.20;53.20;;;;;;680285;29;1974;-85
2022/05/31 01:27:32;;;;;;;;;;;25.20;53.20;;;;;;680529;29;764;-86
2022/05/31 01:28:11;;;;;;;;;;;25.20;53.20;;;;;;683017;29;839;-84
2022/05/31 01:28:32;;;;;;;;;;;25.20;53.20;;;;;;682813;29;1420;-86
2022/05/31 01:28:58;;;;;;;;;;;25.20;53.20;;;;;;682992;29;871;-86
2022/05/31 01:29:30;;;;;;;;;;;25.10;53.10;;;;;;683154;29;902;-86
2022/05/31 01:29:51;;;;;;;;;;;25.10;53.10;;;;;;683052;29;1127;-85
2022/05/31 01:30:12;;;;;;;;;;;25.20;53.20;;;;;;682918;29;795;-86
2022/05/31 01:30:35;;;;;;;;;;;25.10;53.10;;;;;;682898;29;803;-84
2022/05/31 01:30:59;;;;;;;;;;;25.10;53.10;;;;;;680283;29;863;-86
2022/05/31 01:31:31;;;;;;;;;;;25.10;53.10;;;;;;680412;29;803;-84
2022/05/31 01:31:55;;;;;;;;;;;25.10;53.10;;;;;;680522;29;863;-86
2022/05/31 01:32:16;;;;;;;;;;;25.10;53.20;;;;;;680157;29;943;-87
2022/05/31 01:32:39;;;;;;;;;;;25.10;53.10;;;;;;680103;29;1260;-86
2022/05/31 01:33:14;;;;;;;;;;;25.10;53.20;;;;;;680243;29;1915;-85
2022/05/31 01:33:37;;;;;;;;;;;25.10;53.10;;;;;;680337;29;863;-85
2022/05/31 01:34:20;;;;;;;;;;;25.10;53.10;;;;;;680357;29;520;-85
2022/05/31 01:34:52;;;;;;;;;;;25.10;53.10;;;;;;682878;29;874;-86
2022/05/31 01:35:24;;;;;;;;;;;25.10;53.10;;;;;;682937;29;807;-85
2022/05/31 01:35:45;;;;;;;;;;;25.10;53.10;;;;;;682915;29;859;-85
2022/05/31 01:36:16;;;;;;;;;;;25.10;53.10;;;;;;682914;29;1099;-86
2022/05/31 01:36:46;;;;;;;;;;;25.10;53.10;;;;;;682787;29;828;-86
2022/05/31 01:37:07;;;;;;;;;;;25.10;53.10;;;;;;682935;29;831;-85
2022/05/31 01:37:37;;;;;;;;;;;25.10;53.10;;;;;;683017;29;808;-85
2022/05/31 01:38:01;;;;;;;;;;;25.10;53.20;;;;;;683008;29;835;-87
2022/05/31 01:38:23;;;;;;;;;;;25.10;53.10;;;;;;682972;29;974;-85
2022/05/31 01:38:48;;;;;;;;;;;25.10;53.10;;;;;;682841;29;831;-85
2022/05/31 01:39:19;;;;;;;;;;;25.10;53.10;;;;;;682864;29;713;-86
2022/05/31 01:39:43;;;;;;;;;;;25.10;53.10;;;;;;682821;29;831;-85
2022/05/31 01:40:07;;;;;;;;;;;25.10;53.10;;;;;;682919;29;838;-86
2022/05/31 01:40:37;;;;;;;;;;;25.10;53.20;;;;;;682886;29;1149;-85
2022/05/31 01:41:03;;;;;;;;;;;25.10;53.10;;;;;;682895;29;934;-86
2022/05/31 01:41:30;;;;;;;;;;;25.10;53.30;;;;;;682790;29;1465;-85
2022/05/31 01:42:04;;;;;;;;;;;25.10;53.20;;;;;;682786;29;1187;-86
2022/05/31 01:42:34;;;;;;;;;;;25.10;53.10;;;;;;683078;29;748;-86
2022/05/31 01:42:55;;;;;;;;;;;25.10;53.10;;;;;;682926;29;604;-87
2022/05/31 01:43:16;;;;;;;;;;;25.10;53.10;;;;;;682870;29;724;-85
2022/05/31 01:43:36;;;;;;;;;;;25.10;53.20;;;;;;682915;29;843;-86
2022/05/31 01:43:58;;;;;;;;;;;25.10;53.20;;;;;;683036;29;803;-86
2022/05/31 01:44:21;;;;;;;;;;;25.10;53.20;;;;;;683011;29;925;-86
2022/05/31 01:44:44;;;;;;;;;;;25.10;53.10;;;;;;682928;29;887;-85
2022/05/31 01:45:08;;;;;;;;;;;25.10;53.10;;;;;;682931;29;898;-86
2022/05/31 01:45:31;;;;;;;;;;;25.10;53.10;;;;;;682905;29;851;-86
2022/05/31 01:45:55;;;;;;;;;;;25.10;53.30;;;;;;682932;29;819;-85
2022/05/31 01:46:19;;;;;;;;;;;25.10;53.30;;;;;;682939;29;871;-86
2022/05/31 01:46:41;;;;;;;;;;;25.10;53.30;;;;;;682918;29;504;-86
2022/05/31 01:47:03;;;;;;;;;;;25.10;53.20;;;;;;682791;29;852;-86
2022/05/31 01:47:24;;;;;;;;;;;25.10;53.20;;;;;;683010;29;791;-86
2022/05/31 01:47:45;;;;;;;;;;;25.00;53.70;;;;;;680231;29;1312;-85
2022/05/31 01:48:06;;;;;;;;;;;25.10;53.50;;;;;;680224;29;899;-86
2022/05/31 01:48:30;;;;;;;;;;;25.10;53.30;;;;;;680341;29;796;-86
2022/05/31 01:48:51;;;;;;;;;;;25.10;53.20;;;;;;680205;29;1159;-87
2022/05/31 01:49:13;;;;;;;;;;;25.10;53.20;;;;;;680204;29;990;-87
2022/05/31 01:49:35;;;;;;;;;;;25.10;53.20;;;;;;681303;29;985;-87
2022/05/31 01:49:56;;;;;;;;;;;25.10;53.30;;;;;;682941;29;895;-87
2022/05/31 01:50:19;;;;;;;;;;;25.10;53.30;;;;;;682919;29;815;-85
2022/05/31 01:50:41;;;;;;;;;;;25.10;53.10;;;;;;682923;29;823;-87
2022/05/31 01:51:01;;;;;;;;;;;25.10;53.10;;;;;;680111;29;871;-87
2022/05/31 01:51:22;;;;;;;;;;;25.10;53.30;;;;;;680309;29;868;-87
2022/05/31 01:51:43;;;;;;;;;;;25.10;53.30;;;;;;680272;29;883;-86
2022/05/31 01:52:04;;;;;;;;;;;25.10;53.20;;;;;;680257;29;812;-87
2022/05/31 01:52:26;;;;;;;;;;;25.10;53.20;;;;;;680249;29;1322;-88
2022/05/31 01:52:47;;;;;;;;;;;25.10;53.20;;;;;;680226;29;1915;-86
2022/05/31 01:53:08;;;;;;;;;;;25.10;53.10;;;;;;680846;29;951;-87
2022/05/31 01:53:30;;;;;;;;;;;25.10;53.10;;;;;;682911;29;899;-87
2022/05/31 01:53:51;;;;;;;;;;;25.10;53.20;;;;;;679939;29;1278;-88
2022/05/31 01:54:14;;;;;;;;;;;25.10;53.10;;;;;;680262;29;902;-86
2022/05/31 01:54:35;;;;;;;;;;;25.10;53.20;;;;;;680305;29;855;-86
2022/05/31 01:54:55;;;;;;;;;;;25.10;53.10;;;;;;680341;29;863;-88
2022/05/31 01:55:16;;;;;;;;;;;25.00;53.30;;;;;;680284;29;776;-86
2022/05/31 01:55:40;;;;;;;;;;;25.10;53.30;;;;;;680910;29;1020;-85
2022/05/31 01:56:01;;;;;;;;;;;25.10;53.20;;;;;;682907;29;800;-86
2022/05/31 01:56:22;;;;;;;;;;;25.10;53.20;;;;;;683111;29;839;-85
2022/05/31 01:56:43;;;;;;;;;;;25.10;53.20;;;;;;682925;29;871;-84
2022/05/31 01:57:04;;;;;;;;;;;25.00;53.00;;;;;;679739;29;1474;-86
2022/05/31 01:57:25;;;;;;;;;;;25.10;53.10;;;;;;680314;29;843;-86
2022/05/31 01:57:48;;;;;;;;;;;25.10;53.10;;;;;;680209;29;907;-86
2022/05/31 01:58:13;;;;;;;;;;;25.10;54.20;;;;;;680227;29;891;-85
2022/05/31 01:58:35;;;;;;;;;;;25.10;53.30;;;;;;680320;29;847;-86
2022/05/31 01:58:56;;;;;;;;;;;25.10;53.10;;;;;;679057;29;1464;-85
2022/05/31 01:59:17;;;;;;;;;;;25.00;53.00;;;;;;680277;29;784;-85
2022/05/31 01:59:41;;;;;;;;;;;25.10;53.10;;;;;;680164;29;859;-86
2022/05/31 02:00:09;;;;;;;;;;;25.10;53.10;;;;;;680302;29;886;-87
2022/05/31 02:00:29;;;;;;;;;;;25.00;53.00;;;;;;680261;29;839;-86
2022/05/31 02:00:51;;;;;;;;;;;25.10;53.20;;;;;;682043;29;776;-85
2022/05/31 02:01:11;;;;;;;;;;;25.10;53.30;;;;;;682920;29;811;-86
2022/05/31 02:01:34;;;;;;;;;;;25.10;53.20;;;;;;682921;29;882;-86
2022/05/31 02:01:56;;;;;;;;;;;25.10;53.10;;;;;;683113;28;917;-85
2022/05/31 02:02:17;;;;;;;;;;;25.10;53.30;;;;;;685793;28;784;-87
2022/05/31 02:02:38;;;;;;;;;;;25.10;53.10;;;;;;685893;28;796;-86
2022/05/31 02:03:01;;;;;;;;;;;25.10;53.10;;;;;;685895;28;858;-85
2022/05/31 02:03:22;;;;;;;;;;;25.10;54.20;;;;;;688276;28;1421;-85
2022/05/31 02:03:44;;;;;;;;;;;25.10;54.20;;;;;;688334;28;922;-86
2022/05/31 02:04:05;;;;;;;;;;;25.10;53.10;;;;;;688275;28;845;-85
2022/05/31 02:04:25;;;;;;;;;;;25.00;53.00;;;;;;688381;28;815;-86
2022/05/31 02:04:46;;;;;;;;;;;25.10;53.10;;;;;;688317;28;997;-87
2022/05/31 02:05:07;;;;;;;;;;;25.10;53.10;;;;;;687820;28;796;-86
2022/05/31 02:05:27;;;;;;;;;;;25.10;53.10;;;;;;685886;28;1074;-86
2022/05/31 02:05:49;;;;;;;;;;;25.10;53.10;;;;;;685898;28;776;-83
2022/05/31 02:06:23;;;;;;;;;;;25.10;53.10;;;;;;688137;28;1189;-84
2022/05/31 02:06:45;;;;;;;;;;;25.00;53.00;;;;;;688303;28;907;-86
2022/05/31 02:07:12;;;;;;;;;;;25.00;53.00;;;;;;688323;28;874;-87
2022/05/31 02:07:33;;;;;;;;;;;25.00;53.00;;;;;;688246;28;855;-85
2022/05/31 02:07:58;;;;;;;;;;;25.10;53.60;;;;;;688102;28;877;-85
2022/05/31 02:08:20;;;;;;;;;;;25.10;53.10;;;;;;685854;28;661;-84
2022/05/31 02:08:41;;;;;;;;;;;25.00;53.00;;;;;;685826;28;842;-85
2022/05/31 02:09:02;;;;;;;;;;;25.10;53.10;;;;;;685819;28;870;-86
2022/05/31 02:09:23;;;;;;;;;;;25.00;53.00;;;;;;685783;28;1408;-85
2022/05/31 02:09:45;;;;;;;;;;;25.10;53.10;;;;;;688221;28;1303;-86
2022/05/31 02:10:06;;;;;;;;;;;25.10;53.10;;;;;;687827;28;875;-86
2022/05/31 02:10:27;;;;;;;;;;;25.00;53.10;;;;;;688382;28;807;-87
2022/05/31 02:10:48;;;;;;;;;;;25.00;53.00;;;;;;688327;28;910;-87
2022/05/31 02:11:09;;;;;;;;;;;25.10;53.20;;;;;;688340;28;803;-85
2022/05/31 02:11:29;;;;;;;;;;;25.00;53.20;;;;;;687949;28;956;-87
2022/05/31 02:11:50;;;;;;;;;;;25.00;53.00;;;;;;686350;28;950;-87
2022/05/31 02:12:12;;;;;;;;;;;25.00;53.20;;;;;;686260;28;843;-87
2022/05/31 02:12:32;;;;;;;;;;;25.10;53.40;;;;;;686317;28;894;-87
2022/05/31 02:12:53;;;;;;;;;;;25.00;53.40;;;;;;688678;28;1907;-87
2022/05/31 02:13:14;;;;;;;;;;;25.00;53.30;;;;;;688787;28;1215;-87
2022/05/31 02:13:36;;;;;;;;;;;25.00;53.00;;;;;;688803;28;851;-85
2022/05/31 02:13:58;;;;;;;;;;;25.10;53.20;;;;;;688934;28;834;-83
2022/05/31 02:14:19;;;;;;;;;;;25.10;53.20;;;;;;688814;28;835;-85
2022/05/31 02:14:40;;;;;;;;;;;25.10;53.40;;;;;;688077;28;846;-84
2022/05/31 02:15:00;;;;;;;;;;;25.10;53.30;;;;;;686145;28;862;-86
2022/05/31 02:15:22;;;;;;;;;;;25.10;53.60;;;;;;686091;28;1241;-86
2022/05/31 02:15:43;;;;;;;;;;;25.10;53.10;;;;;;686112;28;941;-86
2022/05/31 02:16:04;;;;;;;;;;;25.10;53.60;;;;;;686013;28;1108;-85
2022/05/31 02:16:25;;;;;;;;;;;25.10;53.60;;;;;;686028;28;1564;-85
2022/05/31 02:16:45;;;;;;;;;;;25.10;53.80;;;;;;686127;28;910;-85
2022/05/31 02:17:06;;;;;;;;;;;25.10;54.20;;;;;;686162;28;788;-86
2022/05/31 02:17:27;;;;;;;;;;;25.10;53.50;;;;;;686126;28;815;-85
2022/05/31 02:17:47;;;;;;;;;;;25.10;53.70;;;;;;686072;28;906;-82
2022/05/31 02:18:09;;;;;;;;;;;25.10;54.10;;;;;;683683;28;1001;-83
2022/05/31 02:19:15;;;;;;;;;;;25.10;53.80;;;;;;686137;28;847;-83
2022/05/31 02:19:23;;;;;;;;;;;25.10;54.00;;;;;;686052;28;854;-83
2022/05/31 02:19:44;;;;;;;;;;;25.10;53.60;;;;;;683355;29;1527;-83